createdAt,value
2019-02-17T00:01:52.780Z,21.70
2019-02-17T00:03:26.620Z,22.37
2019-02-17T00:05:00.524Z,20.47
2019-02-17T00:06:34.530Z,23.07
2019-02-17T00:08:07.793Z,20.60
2019-02-17T00:09:42.543Z,20.93
2019-02-17T00:11:16.349Z,22.73
2019-02-17T00:12:50.339Z,22.83
2019-02-17T00:14:24.654Z,18.00
2019-02-17T00:15:58.557Z,22.03
2019-02-17T00:17:32.458Z,23.90
2019-02-17T00:19:06.441Z,18.93
2019-02-17T00:20:40.213Z,19.80
2019-02-17T00:22:13.968Z,18.20
2019-02-17T00:23:47.785Z,18.47
2019-02-17T00:25:20.681Z,19.83
2019-02-17T00:26:53.553Z,21.30
2019-02-17T00:28:26.494Z,19.33
2019-02-17T00:30:00.502Z,18.40
2019-02-17T00:31:34.304Z,23.00
2019-02-17T00:33:07.472Z,22.97
2019-02-17T00:34:41.477Z,20.47
2019-02-17T00:36:15.703Z,17.47
2019-02-17T00:37:49.505Z,19.70
2019-02-17T00:39:23.794Z,17.47
2019-02-17T00:40:58.024Z,18.97
2019-02-17T00:42:32.950Z,13.80
2019-02-17T00:44:06.855Z,18.17
2019-02-17T00:45:40.907Z,16.43
2019-02-17T00:47:14.657Z,16.97
2019-02-17T00:48:48.625Z,18.27
2019-02-17T00:50:22.363Z,18.60
2019-02-17T00:51:56.364Z,18.13
2019-02-17T00:53:30.184Z,19.00
2019-02-17T00:55:04.297Z,20.07
2019-02-17T00:56:38.163Z,16.67
2019-02-17T00:58:12.103Z,17.10
2019-02-17T00:59:45.983Z,14.80
2019-02-17T01:01:19.886Z,21.07
2019-02-17T01:02:54.073Z,17.57
2019-02-17T01:04:28.095Z,19.47
2019-02-17T01:06:02.824Z,17.30
2019-02-17T01:07:36.707Z,17.33
2019-02-17T01:09:10.832Z,18.03
2019-02-17T01:10:44.777Z,19.00
2019-02-17T01:12:18.631Z,16.27
2019-02-17T01:13:52.660Z,17.37
2019-02-17T01:15:26.550Z,18.57
2019-02-17T01:17:00.379Z,17.93
2019-02-17T01:18:34.349Z,16.23
2019-02-17T01:20:08.334Z,15.13
2019-02-17T01:21:42.459Z,15.63
2019-02-17T01:23:16.721Z,16.73
2019-02-17T01:24:50.653Z,15.50
2019-02-17T01:26:24.576Z,15.90
2019-02-17T01:27:58.766Z,16.57
2019-02-17T01:29:32.869Z,14.33
2019-02-17T01:31:08.526Z,13.47
2019-02-17T01:32:42.129Z,14.63
2019-02-17T01:34:21.152Z,14.30
2019-02-17T01:35:55.055Z,16.03
2019-02-17T01:37:29.060Z,11.67
2019-02-17T01:39:02.759Z,15.80
2019-02-17T01:40:36.715Z,16.50
2019-02-17T01:42:10.768Z,16.27
2019-02-17T01:43:44.538Z,12.73
2019-02-17T01:45:18.553Z,13.23
2019-02-17T01:46:52.431Z,13.93
2019-02-17T01:48:26.312Z,11.47
2019-02-17T01:50:00.379Z,15.73
2019-02-17T01:51:34.488Z,13.60
2019-02-17T01:53:08.596Z,16.03
2019-02-17T01:54:42.702Z,11.60
2019-02-17T01:56:17.628Z,9.23
2019-02-17T01:57:51.620Z,14.03
2019-02-17T01:59:30.664Z,10.93
2019-02-17T02:00:59.231Z,11.53
2019-02-17T02:02:33.140Z,12.63
2019-02-17T02:04:07.127Z,12.30
2019-02-17T02:05:41.485Z,11.83
2019-02-17T02:07:15.559Z,10.77
2019-02-17T02:08:50.473Z,13.70
2019-02-17T02:10:24.695Z,13.00
2019-02-17T02:11:58.479Z,14.27
2019-02-17T02:13:32.600Z,10.63
2019-02-17T02:15:06.608Z,11.63
2019-02-17T02:16:40.764Z,11.73
2019-02-17T02:18:14.925Z,13.13
2019-02-17T02:19:49.825Z,11.33
2019-02-17T02:21:23.625Z,10.00
2019-02-17T02:22:57.733Z,11.03
2019-02-17T02:24:31.760Z,12.33
2019-02-17T02:26:05.654Z,13.00
2019-02-17T02:27:39.771Z,10.43
2019-02-17T02:29:14.773Z,11.30
2019-02-17T02:30:49.602Z,10.33
2019-02-17T02:32:23.628Z,11.70
2019-02-17T02:33:57.701Z,9.83
2019-02-17T02:35:31.843Z,11.40
2019-02-17T02:37:05.830Z,11.10
2019-02-17T02:38:40.770Z,17.33
2019-02-17T02:40:14.790Z,9.13
2019-02-17T02:41:48.788Z,10.40
2019-02-17T02:43:22.991Z,10.83
2019-02-17T02:44:57.712Z,10.30
2019-02-17T02:46:31.513Z,11.30
2019-02-17T02:48:05.313Z,9.60
2019-02-17T02:49:39.054Z,8.37
2019-02-17T02:51:12.990Z,12.87
2019-02-17T02:52:46.885Z,10.33
2019-02-17T02:54:21.021Z,14.93
2019-02-17T02:55:55.004Z,12.50
2019-02-17T02:57:28.761Z,10.87
2019-02-17T02:59:02.940Z,12.70
2019-02-17T03:00:36.748Z,11.50
2019-02-17T03:02:10.843Z,11.27
2019-02-17T03:03:46.102Z,12.77
2019-02-17T03:05:18.682Z,9.53
2019-02-17T03:07:10.050Z,10.67
2019-02-17T03:08:43.859Z,12.90
2019-02-17T03:10:17.972Z,11.63
2019-02-17T03:11:52.076Z,10.43
2019-02-17T03:13:26.215Z,10.27
2019-02-17T03:15:00.736Z,12.50
2019-02-17T03:16:35.116Z,9.30
2019-02-17T03:18:09.375Z,12.80
2019-02-17T03:19:43.428Z,10.10
2019-02-17T03:21:17.125Z,12.97
2019-02-17T03:22:51.031Z,13.03
2019-02-17T03:24:25.317Z,11.20
2019-02-17T03:25:59.437Z,12.17
2019-02-17T03:27:33.428Z,9.83
2019-02-17T03:29:07.323Z,15.03
2019-02-17T03:30:41.360Z,11.93
2019-02-17T03:32:15.384Z,12.33
2019-02-17T03:33:50.175Z,9.57
2019-02-17T03:35:24.195Z,9.73
2019-02-17T03:36:58.607Z,12.57
2019-02-17T03:38:32.723Z,11.50
2019-02-17T03:40:06.697Z,9.67
2019-02-17T03:41:40.481Z,8.73
2019-02-17T03:43:14.563Z,12.20
2019-02-17T03:44:48.836Z,14.93
2019-02-17T03:46:22.841Z,14.03
2019-02-17T03:47:56.639Z,11.43
2019-02-17T03:49:30.545Z,11.67
2019-02-17T03:51:04.443Z,12.67
2019-02-17T03:52:38.365Z,12.40
2019-02-17T03:54:12.331Z,11.80
2019-02-17T03:55:46.133Z,12.27
2019-02-17T03:57:19.877Z,8.97
2019-02-17T03:58:52.797Z,13.10
2019-02-17T04:00:26.687Z,14.23
2019-02-17T04:02:00.608Z,11.00
2019-02-17T04:03:34.642Z,12.23
2019-02-17T04:05:09.463Z,12.40
2019-02-17T04:06:43.468Z,10.37
2019-02-17T04:08:17.370Z,11.00
2019-02-17T04:09:52.404Z,13.37
2019-02-17T04:11:26.203Z,12.77
2019-02-17T04:13:00.192Z,11.53
2019-02-17T04:14:34.087Z,10.97
2019-02-17T04:16:08.214Z,13.10
2019-02-17T04:17:42.013Z,16.17
2019-02-17T04:19:15.903Z,12.63
2019-02-17T04:20:49.616Z,12.90
2019-02-17T04:22:23.725Z,12.40
2019-02-17T04:23:57.009Z,13.23
2019-02-17T04:25:30.710Z,11.77
2019-02-17T04:27:05.018Z,11.97
2019-02-17T04:28:39.005Z,12.20
2019-02-17T04:30:13.027Z,10.30
2019-02-17T04:31:46.907Z,11.17
2019-02-17T04:33:20.814Z,12.70
2019-02-17T04:34:54.908Z,10.60
2019-02-17T04:36:29.354Z,12.93
2019-02-17T04:38:03.236Z,13.73
2019-02-17T04:39:37.202Z,14.17
2019-02-17T04:41:11.368Z,10.47
2019-02-17T04:42:45.356Z,12.30
2019-02-17T04:44:19.379Z,11.03
2019-02-17T04:45:53.363Z,11.57
2019-02-17T04:47:27.076Z,10.60
2019-02-17T04:49:00.964Z,12.00
2019-02-17T04:50:34.884Z,13.10
2019-02-17T04:52:09.567Z,10.20
2019-02-17T04:53:43.506Z,12.30
2019-02-17T04:55:17.207Z,11.43
2019-02-17T04:56:51.289Z,11.17
2019-02-17T04:58:24.476Z,10.10
2019-02-17T04:59:58.404Z,10.47
2019-02-17T05:01:32.303Z,10.40
2019-02-17T05:03:06.119Z,10.27
2019-02-17T05:04:39.999Z,9.43
2019-02-17T05:06:14.112Z,13.17
2019-02-17T05:07:48.201Z,10.30
2019-02-17T05:09:22.210Z,10.03
2019-02-17T05:10:56.232Z,12.07
2019-02-17T05:12:30.344Z,11.13
2019-02-17T05:14:05.456Z,10.17
2019-02-17T05:15:39.351Z,12.80
2019-02-17T05:17:13.117Z,11.87
2019-02-17T05:18:47.242Z,8.93
2019-02-17T05:20:22.100Z,8.20
2019-02-17T05:21:56.003Z,10.37
2019-02-17T05:23:29.986Z,10.77
2019-02-17T05:25:03.955Z,10.40
2019-02-17T05:26:36.971Z,10.87
2019-02-17T05:28:10.984Z,9.60
2019-02-17T05:29:44.727Z,9.00
2019-02-17T05:31:18.588Z,10.27
2019-02-17T05:32:52.602Z,9.43
2019-02-17T05:34:26.594Z,10.93
2019-02-17T05:36:00.490Z,9.43
2019-02-17T05:37:34.494Z,11.43
2019-02-17T05:39:08.519Z,10.77
2019-02-17T05:40:42.633Z,10.70
2019-02-17T05:42:16.404Z,9.40
2019-02-17T05:43:50.643Z,12.33
2019-02-17T05:45:25.334Z,9.47
2019-02-17T05:46:59.044Z,10.23
2019-02-17T05:48:32.738Z,7.93
2019-02-17T05:50:06.758Z,10.17
2019-02-17T05:51:41.557Z,8.37
2019-02-17T05:53:15.382Z,9.77
2019-02-17T05:54:50.513Z,10.57
2019-02-17T05:56:23.389Z,6.77
2019-02-17T05:57:57.478Z,12.20
2019-02-17T05:59:31.254Z,10.97
2019-02-17T06:01:07.404Z,8.23
2019-02-17T06:02:41.030Z,8.67
2019-02-17T06:04:14.992Z,10.40
2019-02-17T06:05:48.857Z,7.63
2019-02-17T06:07:22.756Z,8.40
2019-02-17T06:08:56.682Z,10.97
2019-02-17T06:10:31.495Z,10.07
2019-02-17T06:12:05.486Z,8.77
2019-02-17T06:13:39.457Z,9.40
2019-02-17T06:15:13.415Z,8.73
2019-02-17T06:16:47.489Z,9.70
2019-02-17T06:18:21.304Z,9.07
2019-02-17T06:19:55.219Z,8.90
2019-02-17T06:21:29.207Z,8.97
2019-02-17T06:23:03.902Z,8.27
2019-02-17T06:24:37.923Z,8.87
2019-02-17T06:26:13.170Z,7.43
2019-02-17T06:27:47.389Z,6.83
2019-02-17T06:29:21.280Z,10.60
2019-02-17T06:30:55.488Z,10.33
2019-02-17T06:32:30.312Z,11.27
2019-02-17T06:34:04.361Z,7.57
2019-02-17T06:35:38.362Z,7.40
2019-02-17T06:37:12.534Z,10.70
2019-02-17T06:38:46.823Z,8.57
2019-02-17T06:40:21.770Z,8.17
2019-02-17T06:41:56.696Z,9.77
2019-02-17T06:43:30.700Z,7.87
2019-02-17T06:45:05.016Z,6.40
2019-02-17T06:46:43.216Z,11.23
2019-02-17T06:48:17.426Z,11.03
2019-02-17T06:49:51.453Z,8.17
2019-02-17T06:51:25.752Z,7.70
2019-02-17T06:52:59.821Z,7.27
2019-02-17T06:54:33.753Z,9.63
2019-02-17T06:57:10.814Z,9.23
2019-02-17T06:58:45.026Z,11.70
2019-02-17T07:00:25.096Z,9.83
2019-02-17T07:02:00.018Z,8.67
2019-02-17T07:03:33.934Z,10.37
2019-02-17T07:05:16.038Z,9.10
2019-02-17T07:06:54.330Z,7.33
2019-02-17T07:08:28.441Z,7.90
2019-02-17T07:10:02.333Z,6.30
2019-02-17T07:11:36.048Z,8.63
2019-02-17T07:13:10.135Z,8.67
2019-02-17T07:14:44.123Z,8.03
2019-02-17T07:16:18.130Z,8.87
2019-02-17T07:17:52.085Z,8.07
2019-02-17T07:19:25.653Z,8.63
2019-02-17T07:20:59.638Z,8.07
2019-02-17T07:22:33.533Z,6.80
2019-02-17T07:24:06.455Z,8.40
2019-02-17T07:25:40.510Z,5.83
2019-02-17T07:27:14.519Z,9.53
2019-02-17T07:28:48.409Z,6.63
2019-02-17T07:30:22.653Z,8.10
2019-02-17T07:31:56.990Z,7.27
2019-02-17T07:33:30.971Z,6.90
2019-02-17T07:35:04.872Z,7.77
2019-02-17T07:36:38.775Z,7.00
2019-02-17T07:38:12.680Z,8.17
2019-02-17T07:39:46.694Z,7.57
2019-02-17T07:41:21.403Z,8.00
2019-02-17T07:42:55.511Z,6.17
2019-02-17T07:44:29.340Z,8.23
2019-02-17T07:46:03.519Z,6.40
2019-02-17T07:47:38.529Z,10.30
2019-02-17T07:49:12.553Z,7.10
2019-02-17T07:50:46.971Z,8.97
2019-02-17T07:52:20.751Z,10.00
2019-02-17T07:53:54.774Z,6.73
2019-02-17T07:55:28.675Z,5.73
2019-02-17T07:57:02.478Z,7.77
2019-02-17T07:58:36.404Z,7.70
2019-02-17T08:00:10.262Z,6.47
2019-02-17T08:01:45.628Z,5.27
2019-02-17T08:03:19.929Z,7.17
2019-02-17T08:04:53.861Z,5.60
2019-02-17T08:06:28.141Z,6.77
2019-02-17T08:08:01.940Z,6.27
2019-02-17T08:09:35.846Z,5.30
2019-02-17T08:11:09.765Z,6.47
2019-02-17T08:12:44.260Z,6.40
2019-02-17T08:14:18.372Z,6.00
2019-02-17T08:15:52.250Z,5.50
2019-02-17T08:17:25.356Z,7.70
2019-02-17T08:18:59.239Z,8.63
2019-02-17T08:20:36.392Z,5.63
2019-02-17T08:22:07.951Z,6.43
2019-02-17T08:23:41.119Z,7.50
2019-02-17T08:25:21.953Z,5.00
2019-02-17T08:26:49.490Z,6.03
2019-02-17T08:28:22.212Z,5.07
2019-02-17T08:29:56.145Z,7.17
2019-02-17T08:31:29.325Z,5.77
2019-02-17T08:33:03.105Z,5.97
2019-02-17T08:34:37.259Z,7.07
2019-02-17T08:36:11.160Z,5.20
2019-02-17T08:37:44.954Z,6.10
2019-02-17T08:39:19.987Z,4.27
2019-02-17T08:40:54.033Z,4.50
2019-02-17T08:42:28.304Z,4.87
2019-02-17T08:44:02.901Z,5.93
2019-02-17T08:45:36.930Z,3.47
2019-02-17T08:47:11.729Z,6.57
2019-02-17T08:48:45.796Z,6.97
2019-02-17T08:50:21.899Z,7.00
2019-02-17T08:51:55.912Z,5.67
2019-02-17T08:53:29.744Z,6.83
2019-02-17T08:55:03.802Z,5.33
2019-02-17T08:56:37.805Z,6.90
2019-02-17T08:58:11.638Z,3.43
2019-02-17T08:59:45.635Z,3.67
2019-02-17T09:01:19.850Z,4.00
2019-02-17T09:02:53.752Z,3.17
2019-02-17T09:04:28.657Z,5.53
2019-02-17T09:06:02.474Z,4.30
2019-02-17T09:07:36.990Z,3.23
2019-02-17T09:09:10.911Z,3.10
2019-02-17T09:10:44.898Z,3.57
2019-02-17T09:12:19.618Z,5.13
2019-02-17T09:13:53.920Z,2.80
2019-02-17T09:15:28.275Z,3.43
2019-02-17T09:17:01.932Z,2.87
2019-02-17T09:18:36.280Z,5.83
2019-02-17T09:20:10.249Z,2.57
2019-02-17T09:21:44.311Z,3.83
2019-02-17T09:23:18.654Z,2.33
2019-02-17T09:24:51.970Z,2.70
2019-02-17T09:26:25.766Z,2.07
2019-02-17T09:27:59.690Z,2.40
2019-02-17T09:29:34.576Z,2.00
2019-02-17T09:31:07.647Z,2.20
2019-02-17T09:32:41.447Z,1.77
2019-02-17T09:34:15.203Z,2.13
2019-02-17T09:35:49.294Z,1.73
2019-02-17T09:37:23.580Z,3.73
2019-02-17T09:38:56.952Z,3.03
2019-02-17T09:40:31.908Z,3.20
2019-02-17T09:42:04.893Z,4.53
2019-02-17T09:43:39.690Z,3.40
2019-02-17T09:45:12.578Z,2.77
2019-02-17T09:46:45.488Z,2.90
2019-02-17T09:48:19.530Z,5.50
2019-02-17T09:49:52.424Z,2.00
2019-02-17T09:51:25.305Z,1.57
2019-02-17T09:52:59.225Z,5.57
2019-02-17T09:54:32.228Z,2.20
2019-02-17T09:56:06.129Z,2.97
2019-02-17T09:57:39.214Z,1.70
2019-02-17T09:59:12.132Z,2.40
2019-02-17T10:00:46.193Z,1.97
2019-02-17T10:02:26.602Z,2.93
2019-02-17T10:03:56.249Z,3.87
2019-02-17T10:05:31.909Z,3.43
2019-02-17T10:07:05.805Z,3.23
2019-02-17T10:08:39.566Z,1.93
2019-02-17T10:10:14.119Z,4.23
2019-02-17T10:11:48.000Z,3.80
2019-02-17T10:13:20.906Z,2.77
2019-02-17T10:14:55.202Z,3.37
2019-02-17T10:16:28.932Z,1.97
2019-02-17T10:18:02.940Z,2.00
2019-02-17T10:19:36.928Z,3.40
2019-02-17T10:21:10.733Z,3.03
2019-02-17T10:22:44.726Z,1.90
2019-02-17T10:24:19.232Z,1.80
2019-02-17T10:25:53.116Z,2.07
2019-02-17T10:27:27.442Z,4.00
2019-02-17T10:29:01.347Z,2.33
2019-02-17T10:30:35.349Z,3.07
2019-02-17T10:32:10.388Z,1.53
2019-02-17T10:33:44.179Z,3.57
2019-02-17T10:35:18.182Z,3.80
2019-02-17T10:36:51.872Z,4.30
2019-02-17T10:38:25.948Z,7.33
2019-02-17T10:39:59.889Z,4.10
2019-02-17T10:41:33.690Z,6.23
2019-02-17T10:43:07.492Z,4.07
2019-02-17T10:44:41.384Z,4.73
2019-02-17T10:46:15.191Z,2.97
2019-02-17T10:47:48.366Z,3.97
2019-02-17T10:49:22.281Z,3.13
2019-02-17T10:50:55.276Z,6.13
2019-02-17T10:52:29.368Z,5.23
2019-02-17T10:54:03.482Z,10.83
2019-02-17T10:55:37.634Z,21.57
2019-02-17T10:57:12.613Z,11.03
2019-02-17T10:58:46.622Z,6.63
2019-02-17T11:00:21.473Z,6.23
2019-02-17T11:01:55.415Z,4.33
2019-02-17T11:03:31.395Z,5.00
2019-02-17T11:05:05.795Z,5.30
2019-02-17T11:06:40.069Z,8.37
2019-02-17T11:08:13.114Z,6.90
2019-02-17T11:09:47.242Z,4.57
2019-02-17T11:11:21.144Z,4.70
2019-02-17T11:12:54.279Z,5.27
2019-02-17T11:14:29.026Z,4.93
2019-02-17T11:16:04.225Z,4.50
2019-02-17T11:17:37.093Z,3.03
2019-02-17T11:19:09.960Z,3.43
2019-02-17T11:20:43.834Z,3.23
2019-02-17T11:22:23.192Z,3.30
2019-02-17T11:23:51.979Z,4.17
2019-02-17T11:25:24.682Z,3.60
2019-02-17T11:26:58.819Z,4.07
2019-02-17T11:28:32.659Z,5.33
2019-02-17T11:30:06.689Z,2.70
2019-02-17T11:31:40.449Z,5.30
2019-02-17T11:33:14.194Z,5.47
2019-02-17T11:34:48.213Z,1.70
2019-02-17T11:36:22.424Z,6.07
2019-02-17T11:37:56.627Z,3.07
2019-02-17T11:39:31.457Z,4.17
2019-02-17T11:41:05.484Z,3.10
2019-02-17T11:42:39.569Z,2.67
2019-02-17T11:44:13.579Z,2.53
2019-02-17T11:45:47.368Z,2.70
2019-02-17T11:47:52.055Z,3.03
2019-02-17T11:49:25.823Z,4.00
2019-02-17T11:50:58.842Z,4.47
2019-02-17T11:52:32.885Z,3.10
2019-02-17T11:54:06.990Z,3.63
2019-02-17T11:55:40.995Z,8.73
2019-02-17T11:57:15.012Z,5.30
2019-02-17T11:58:47.649Z,8.10
2019-02-17T12:00:24.475Z,1.57
2019-02-17T12:01:58.277Z,3.67
2019-02-17T12:03:32.940Z,4.27
2019-02-17T12:05:06.761Z,3.63
2019-02-17T12:06:40.703Z,4.13
2019-02-17T12:08:14.445Z,2.47
2019-02-17T12:09:48.392Z,1.93
2019-02-17T12:11:21.346Z,3.13
2019-02-17T12:12:55.138Z,4.07
2019-02-17T12:14:28.831Z,3.33
2019-02-17T12:16:03.779Z,4.33
2019-02-17T12:17:37.891Z,2.57
2019-02-17T12:19:12.374Z,4.93
2019-02-17T12:21:09.477Z,2.80
2019-02-17T12:22:46.345Z,4.43
2019-02-17T12:24:22.149Z,5.00
2019-02-17T12:26:16.230Z,7.07
2019-02-17T12:28:02.464Z,5.83
2019-02-17T12:29:40.533Z,4.33
2019-02-17T12:31:14.530Z,3.03
2019-02-17T12:32:48.541Z,3.77
2019-02-17T12:34:23.479Z,2.10
2019-02-17T12:35:58.083Z,3.67
2019-02-17T12:37:31.088Z,3.37
2019-02-17T12:39:04.041Z,2.57
2019-02-17T12:40:37.334Z,2.27
2019-02-17T12:42:12.034Z,2.67
2019-02-17T12:43:45.753Z,3.57
2019-02-17T12:45:19.781Z,2.43
2019-02-17T12:46:53.618Z,3.90
2019-02-17T12:48:27.453Z,3.67
2019-02-17T12:50:01.199Z,5.07
2019-02-17T12:51:35.033Z,3.33
2019-02-17T12:53:09.179Z,3.37
2019-02-17T12:54:42.058Z,2.77
2019-02-17T12:56:16.053Z,1.97
2019-02-17T12:57:50.161Z,2.40
2019-02-17T12:59:24.061Z,3.20
2019-02-17T13:00:57.934Z,4.77
2019-02-17T13:02:31.767Z,2.83
2019-02-17T13:04:05.669Z,3.50
2019-02-17T13:05:39.634Z,2.70
2019-02-17T13:07:15.290Z,2.80
2019-02-17T13:08:49.192Z,5.57
2019-02-17T13:10:24.060Z,3.47
2019-02-17T13:11:58.259Z,3.73
2019-02-17T13:13:32.259Z,4.47
2019-02-17T13:15:06.326Z,3.43
2019-02-17T13:16:40.223Z,6.83
2019-02-17T13:18:14.169Z,3.63
2019-02-17T13:19:49.097Z,4.67
2019-02-17T13:21:23.109Z,5.77
2019-02-17T13:22:57.208Z,3.33
2019-02-17T13:24:30.987Z,4.90
2019-02-17T13:26:05.319Z,3.80
2019-02-17T13:27:40.965Z,3.90
2019-02-17T13:29:15.273Z,4.50
2019-02-17T13:30:50.206Z,3.27
2019-02-17T13:32:24.205Z,2.50
2019-02-17T13:33:58.111Z,3.40
2019-02-17T13:35:32.017Z,3.20
2019-02-17T13:37:06.823Z,5.13
2019-02-17T13:38:40.743Z,2.53
2019-02-17T13:40:14.645Z,3.00
2019-02-17T13:41:48.866Z,5.50
2019-02-17T13:43:22.816Z,2.83
2019-02-17T13:44:56.780Z,2.20
2019-02-17T13:46:30.731Z,4.30
2019-02-17T13:48:04.746Z,3.83
2019-02-17T13:49:38.451Z,3.63
2019-02-17T13:51:12.310Z,3.50
2019-02-17T13:52:46.268Z,1.60
2019-02-17T13:54:20.071Z,2.40
2019-02-17T13:55:54.794Z,3.90
2019-02-17T13:57:29.716Z,4.83
2019-02-17T13:59:03.721Z,4.53
2019-02-17T14:00:38.750Z,4.57
2019-02-17T14:02:12.662Z,1.30
2019-02-17T14:03:48.889Z,3.73
2019-02-17T14:05:21.069Z,3.30
2019-02-17T14:06:54.954Z,1.80
2019-02-17T14:08:31.325Z,2.13
2019-02-17T14:10:04.212Z,4.37
2019-02-17T14:11:38.934Z,1.57
2019-02-17T14:13:12.700Z,2.00
2019-02-17T14:14:47.062Z,3.10
2019-02-17T14:16:20.941Z,1.47
2019-02-17T14:17:55.875Z,3.50
2019-02-17T14:19:29.741Z,3.00
2019-02-17T14:21:03.559Z,2.67
2019-02-17T14:22:38.512Z,2.40
2019-02-17T14:24:12.300Z,2.97
2019-02-17T14:25:46.434Z,2.53
2019-02-17T14:27:20.250Z,1.80
2019-02-17T14:28:53.982Z,4.30
2019-02-17T14:30:30.388Z,2.97
2019-02-17T14:32:01.930Z,3.07
2019-02-17T14:33:36.741Z,4.50
2019-02-17T14:35:10.753Z,2.80
2019-02-17T14:36:44.605Z,5.10
2019-02-17T14:38:18.961Z,2.27
2019-02-17T14:39:53.827Z,4.70
2019-02-17T14:41:27.566Z,3.17
2019-02-17T14:43:01.606Z,3.43
2019-02-17T14:44:35.276Z,10.57
2019-02-17T14:46:10.232Z,13.60
2019-02-17T14:47:44.938Z,11.87
2019-02-17T14:49:18.915Z,7.83
2019-02-17T14:50:53.977Z,4.60
2019-02-17T14:52:27.820Z,3.57
2019-02-17T14:54:01.549Z,5.50
2019-02-17T14:55:35.422Z,3.07
2019-02-17T14:57:09.156Z,5.73
2019-02-17T14:58:43.073Z,3.83
2019-02-17T15:00:17.091Z,3.73
2019-02-17T15:01:50.981Z,3.90
2019-02-17T15:03:24.998Z,4.13
2019-02-17T15:04:58.789Z,4.77
2019-02-17T15:06:32.866Z,6.97
2019-02-17T15:08:06.687Z,4.73
2019-02-17T15:09:40.702Z,4.33
2019-02-17T15:11:13.767Z,4.00
2019-02-17T15:12:47.445Z,3.20
2019-02-17T15:14:21.530Z,3.57
2019-02-17T15:15:55.592Z,2.90
2019-02-17T15:17:29.615Z,3.67
2019-02-17T15:19:03.465Z,5.23
2019-02-17T15:20:37.497Z,4.87
2019-02-17T15:22:11.378Z,2.33
2019-02-17T15:23:46.127Z,3.33
2019-02-17T15:25:21.050Z,2.50
2019-02-17T15:26:55.057Z,2.83
2019-02-17T15:28:29.657Z,4.63
2019-02-17T15:30:03.795Z,3.40
2019-02-17T15:31:37.776Z,4.30
2019-02-17T15:33:11.921Z,5.77
2019-02-17T15:34:46.764Z,5.53
2019-02-17T15:36:20.924Z,4.57
2019-02-17T15:37:54.930Z,5.40
2019-02-17T15:39:28.896Z,5.00
2019-02-17T15:41:03.639Z,4.03
2019-02-17T15:42:37.662Z,6.50
2019-02-17T15:44:11.659Z,4.67
2019-02-17T15:45:45.532Z,7.40
2019-02-17T15:47:20.195Z,8.80
2019-02-17T15:48:53.251Z,5.50
2019-02-17T15:50:26.931Z,6.83
2019-02-17T15:52:00.806Z,5.93
2019-02-17T15:53:34.569Z,5.57
2019-02-17T15:55:07.552Z,5.03
2019-02-17T15:56:40.609Z,6.27
2019-02-17T15:58:14.492Z,4.13
2019-02-17T15:59:48.269Z,3.90
2019-02-17T16:01:22.128Z,7.83
2019-02-17T16:02:55.930Z,6.37
2019-02-17T16:04:28.972Z,5.10
2019-02-17T16:06:03.542Z,5.00
2019-02-17T16:07:37.331Z,5.50
2019-02-17T16:09:11.238Z,7.40
2019-02-17T16:10:47.027Z,4.00
2019-02-17T16:12:21.687Z,3.73
2019-02-17T16:13:55.481Z,4.17
2019-02-17T16:15:31.457Z,7.70
2019-02-17T16:17:05.499Z,5.20
2019-02-17T16:18:39.445Z,4.93
2019-02-17T16:20:13.470Z,4.27
2019-02-17T16:21:47.427Z,4.93
2019-02-17T16:23:21.478Z,3.53
2019-02-17T16:24:55.585Z,4.07
2019-02-17T16:26:30.000Z,7.63
2019-02-17T16:28:04.750Z,1.90
2019-02-17T16:29:38.775Z,3.80
2019-02-17T16:31:12.495Z,3.50
2019-02-17T16:32:46.489Z,5.97
2019-02-17T16:34:21.364Z,3.17
2019-02-17T16:35:55.154Z,2.57
2019-02-17T16:37:29.160Z,6.43
2019-02-17T16:39:03.161Z,4.73
2019-02-17T16:40:37.913Z,2.63
2019-02-17T16:42:11.785Z,2.33
2019-02-17T16:43:44.687Z,5.10
2019-02-17T16:45:18.988Z,2.07
2019-02-17T16:46:52.890Z,3.73
2019-02-17T16:48:26.889Z,3.40
2019-02-17T16:50:00.992Z,4.20
2019-02-17T16:51:34.785Z,6.47
2019-02-17T16:53:08.895Z,5.93
2019-02-17T16:54:42.908Z,4.87
2019-02-17T16:56:16.912Z,2.57
2019-02-17T16:57:51.226Z,5.30
2019-02-17T16:59:26.150Z,2.43
2019-02-17T17:01:00.141Z,4.37
2019-02-17T17:02:34.037Z,5.40
2019-02-17T17:04:08.162Z,2.67
2019-02-17T17:05:42.128Z,3.20
2019-02-17T17:07:16.245Z,3.27
2019-02-17T17:08:50.204Z,2.03
2019-02-17T17:10:23.364Z,2.97
2019-02-17T17:11:57.067Z,3.70
2019-02-17T17:13:32.087Z,4.77
2019-02-17T17:15:07.013Z,4.03
2019-02-17T17:16:41.033Z,2.23
2019-02-17T17:18:14.923Z,2.97
2019-02-17T17:19:48.727Z,4.30
2019-02-17T17:21:22.726Z,2.93
2019-02-17T17:22:57.958Z,3.37
2019-02-17T17:24:32.371Z,2.77
2019-02-17T17:26:06.171Z,2.83
2019-02-17T17:27:41.483Z,2.77
2019-02-17T17:29:15.805Z,1.87
2019-02-17T17:30:50.035Z,2.87
2019-02-17T17:32:24.037Z,2.93
2019-02-17T17:33:57.870Z,6.60
2019-02-17T17:35:32.786Z,3.47
2019-02-17T17:37:06.214Z,2.23
2019-02-17T17:38:40.145Z,1.63
2019-02-17T17:40:13.020Z,2.90
2019-02-17T17:41:46.224Z,3.03
2019-02-17T17:43:21.453Z,5.83
2019-02-17T17:44:55.563Z,4.20
2019-02-17T17:46:30.579Z,3.07
2019-02-17T17:48:04.594Z,3.70
2019-02-17T17:49:38.292Z,2.20
2019-02-17T17:51:12.366Z,5.10
2019-02-17T17:52:46.398Z,4.00
2019-02-17T17:54:20.434Z,2.77
2019-02-17T17:55:54.619Z,2.13
2019-02-17T17:57:28.624Z,1.73
2019-02-17T17:59:02.831Z,1.60
2019-02-17T18:00:37.860Z,4.20
2019-02-17T18:02:12.695Z,2.93
2019-02-17T18:03:46.882Z,2.43
2019-02-17T18:05:21.534Z,4.77
2019-02-17T18:06:57.138Z,3.43
2019-02-17T18:08:29.856Z,4.43
2019-02-17T18:10:03.721Z,3.10
2019-02-17T18:11:37.851Z,4.10
2019-02-17T18:13:11.941Z,3.37
2019-02-17T18:14:45.791Z,2.70
2019-02-17T18:16:20.913Z,4.87
2019-02-17T18:17:55.621Z,2.30
2019-02-17T18:19:29.591Z,2.10
2019-02-17T18:21:03.620Z,3.30
2019-02-17T18:22:37.922Z,2.40
2019-02-17T18:24:12.045Z,4.70
2019-02-17T18:25:46.264Z,3.63
2019-02-17T18:27:20.967Z,5.27
2019-02-17T18:28:55.051Z,3.07
2019-02-17T18:30:29.993Z,2.33
2019-02-17T18:32:03.921Z,2.53
2019-02-17T18:33:38.105Z,5.50
2019-02-17T18:35:19.194Z,2.40
2019-02-17T18:36:46.381Z,2.10
2019-02-17T18:38:20.618Z,1.83
2019-02-17T18:39:54.586Z,3.70
2019-02-17T18:41:29.102Z,3.40
2019-02-17T18:43:03.975Z,3.10
2019-02-17T18:44:38.882Z,1.93
2019-02-17T18:46:12.001Z,4.00
2019-02-17T18:47:46.197Z,5.43
2019-02-17T18:49:20.114Z,4.87
2019-02-17T18:50:59.117Z,5.07
2019-02-17T18:52:29.822Z,3.80
2019-02-17T18:54:04.190Z,2.03
2019-02-17T18:55:37.942Z,4.30
2019-02-17T18:57:11.687Z,3.10
2019-02-17T18:58:44.636Z,2.30
2019-02-17T19:00:18.505Z,2.73
2019-02-17T19:01:52.307Z,2.70
2019-02-17T19:03:26.019Z,2.00
2019-02-17T19:04:58.992Z,2.20
2019-02-17T19:06:33.242Z,2.23
2019-02-17T19:08:07.305Z,4.87
2019-02-17T19:09:42.169Z,3.80
2019-02-17T19:11:16.983Z,2.60
2019-02-17T19:12:51.013Z,3.50
2019-02-17T19:14:25.993Z,2.13
2019-02-17T19:16:00.125Z,2.30
2019-02-17T19:17:34.024Z,5.63
2019-02-17T19:19:08.016Z,2.57
2019-02-17T19:20:43.163Z,3.33
2019-02-17T19:22:18.078Z,2.13
2019-02-17T19:23:52.168Z,2.40
2019-02-17T19:25:26.012Z,4.13
2019-02-17T19:27:00.822Z,3.63
2019-02-17T19:28:34.626Z,3.80
2019-02-17T19:30:08.723Z,4.97
2019-02-17T19:31:42.678Z,1.87
2019-02-17T19:33:16.871Z,3.50
2019-02-17T19:34:50.855Z,3.40
2019-02-17T19:36:24.748Z,5.10
2019-02-17T19:37:58.838Z,4.93
2019-02-17T19:39:33.442Z,4.50
2019-02-17T19:41:06.310Z,3.43
2019-02-17T19:42:40.085Z,1.83
2019-02-17T19:44:14.156Z,2.90
2019-02-17T19:45:47.240Z,6.10
2019-02-17T19:47:20.913Z,4.07
2019-02-17T19:48:54.754Z,2.80
2019-02-17T19:50:28.844Z,4.33
2019-02-17T19:52:02.748Z,3.90
2019-02-17T19:53:36.958Z,4.20
2019-02-17T19:55:11.682Z,4.73
2019-02-17T19:56:45.702Z,4.63
2019-02-17T19:58:19.483Z,4.87
2019-02-17T19:59:53.592Z,4.43
2019-02-17T20:01:27.610Z,3.13
2019-02-17T20:03:08.993Z,6.27
2019-02-17T20:04:51.984Z,7.40
2019-02-17T20:06:27.225Z,3.23
2019-02-17T20:08:02.221Z,4.00
2019-02-17T20:09:35.894Z,3.77
2019-02-17T20:11:09.857Z,4.20
2019-02-17T20:12:45.635Z,5.40
2019-02-17T20:14:20.448Z,3.60
2019-02-17T20:15:54.694Z,3.03
2019-02-17T20:17:30.358Z,4.10
2019-02-17T20:19:03.453Z,5.97
2019-02-17T20:20:37.679Z,7.10
2019-02-17T20:23:53.555Z,4.40
2019-02-17T20:25:28.699Z,4.97
2019-02-17T20:27:03.625Z,4.17
2019-02-17T20:28:43.430Z,3.33
2019-02-17T20:30:12.757Z,2.97
2019-02-17T20:31:47.046Z,4.23
2019-02-17T20:33:21.538Z,3.13
2019-02-17T20:34:55.543Z,5.13
2019-02-17T20:36:29.274Z,4.63
2019-02-17T20:38:03.298Z,3.43
2019-02-17T20:39:38.432Z,5.80
2019-02-17T20:41:13.246Z,4.97
2019-02-17T20:42:47.048Z,4.13
2019-02-17T20:44:21.052Z,5.03
2019-02-17T20:45:55.863Z,4.03
2019-02-17T20:47:29.878Z,6.00